sensor_id;sensor_type;location;lat;lon;timestamp;pressure;altitude;pressure_sealevel;temperature;humidity
73674;BME280;61975;48.660;10.164;2022-09-01T00:02:05;95893.78;;;15.78;99.20
73674;BME280;61975;48.660;10.164;2022-09-01T00:04:34;95898.63;;;15.74;99.67
73674;BME280;61975;48.660;10.164;2022-09-01T00:07:05;95893.06;;;15.67;99.95
73674;BME280;61975;48.660;10.164;2022-09-01T00:09:31;95894.66;;;15.64;99.86
73674;BME280;61975;48.660;10.164;2022-09-01T00:11:57;95898.31;;;15.61;99.65
73674;BME280;61975;48.660;10.164;2022-09-01T00:14:26;95899.13;;;15.58;99.79
73674;BME280;61975;48.660;10.164;2022-09-01T00:16:52;95901.13;;;15.54;100.00
73674;BME280;61975;48.660;10.164;2022-09-01T00:19:18;95888.84;;;15.41;100.00
73674;BME280;61975;48.660;10.164;2022-09-01T00:21:45;95882.88;;;15.29;100.00
73674;BME280;61975;48.660;10.164;2022-09-01T00:24:12;95881.31;;;15.24;100.00
73674;BME280;61975;48.660;10.164;2022-09-01T00:26:38;95874.91;;;15.24;100.00
73674;BME280;61975;48.660;10.164;2022-09-01T00:29:04;95878.09;;;15.22;100.00
73674;BME280;61975;48.660;10.164;2022-09-01T00:31:30;95873.31;;;15.19;100.00
73674;BME280;61975;48.660;10.164;2022-09-01T00:33:56;95876.53;;;15.18;100.00
73674;BME280;61975;48.660;10.164;2022-09-01T00:36:22;95872.94;;;15.17;100.00
73674;BME280;61975;48.660;10.164;2022-09-01T00:38:49;95874.13;;;15.16;100.00
73674;BME280;61975;48.660;10.164;2022-09-01T00:41:15;95869.78;;;15.12;100.00
73674;BME280;61975;48.660;10.164;2022-09-01T00:46:17;95869.41;;;15.06;100.00
73674;BME280;61975;48.660;10.164;2022-09-01T00:48:43;95869.81;;;15.05;99.87
73674;BME280;61975;48.660;10.164;2022-09-01T00:51:10;95867.44;;;15.03;100.00
73674;BME280;61975;48.660;10.164;2022-09-01T00:53:38;95858.25;;;14.99;100.00
73674;BME280;61975;48.660;10.164;2022-09-01T00:56:07;95856.66;;;14.98;100.00
73674;BME280;61975;48.660;10.164;2022-09-01T00:58:34;95856.66;;;14.98;100.00
73674;BME280;61975;48.660;10.164;2022-09-01T01:01:01;95854.66;;;14.95;100.00
73674;BME280;61975;48.660;10.164;2022-09-01T01:03:27;95855.88;;;14.94;100.00
73674;BME280;61975;48.660;10.164;2022-09-01T01:05:57;95848.69;;;14.93;100.00
73674;BME280;61975;48.660;10.164;2022-09-01T01:08:33;95849.94;;;14.85;100.00
73674;BME280;61975;48.660;10.164;2022-09-01T01:11:02;95852.72;;;14.82;100.00
73674;BME280;61975;48.660;10.164;2022-09-01T01:13:28;95857.16;;;14.79;100.00
73674;BME280;61975;48.660;10.164;2022-09-01T01:15:56;95854.34;;;14.76;100.00
73674;BME280;61975;48.660;10.164;2022-09-01T01:18:24;95848.78;;;14.72;100.00
73674;BME280;61975;48.660;10.164;2022-09-01T01:20:59;95855.19;;;14.69;100.00
73674;BME280;61975;48.660;10.164;2022-09-01T01:23:52;95847.19;;;14.64;100.00
73674;BME280;61975;48.660;10.164;2022-09-01T01:26:21;95846.41;;;14.64;100.00
73674;BME280;61975;48.660;10.164;2022-09-01T01:28:47;95851.19;;;14.63;100.00
73674;BME280;61975;48.660;10.164;2022-09-01T01:31:17;95846.00;;;14.62;100.00
73674;BME280;61975;48.660;10.164;2022-09-01T01:33:49;95854.44;;;14.58;100.00
73674;BME280;61975;48.660;10.164;2022-09-01T01:36:27;95856.41;;;14.58;100.00
73674;BME280;61975;48.660;10.164;2022-09-01T01:38:59;95848.06;;;14.54;100.00
73674;BME280;61975;48.660;10.164;2022-09-01T01:41:27;95853.66;;;14.54;100.00
73674;BME280;61975;48.660;10.164;2022-09-01T01:43:56;95849.63;;;14.55;100.00
73674;BME280;61975;48.660;10.164;2022-09-01T01:46:22;95851.22;;;14.56;100.00
73674;BME280;61975;48.660;10.164;2022-09-01T01:48:50;95859.59;;;14.56;100.00
73674;BME280;61975;48.660;10.164;2022-09-01T01:51:18;95853.63;;;14.61;100.00
73674;BME280;61975;48.660;10.164;2022-09-01T01:53:46;95855.19;;;14.66;100.00
73674;BME280;61975;48.660;10.164;2022-09-01T01:56:12;95857.56;;;14.71;100.00
73674;BME280;61975;48.660;10.164;2022-09-01T01:58:38;95855.56;;;14.75;100.00
73674;BME280;61975;48.660;10.164;2022-09-01T02:01:05;95855.56;;;14.78;100.00
73674;BME280;61975;48.660;10.164;2022-09-01T02:03:34;95856.75;;;14.81;100.00
73674;BME280;61975;48.660;10.164;2022-09-01T02:06:04;95856.34;;;14.82;100.00
73674;BME280;61975;48.660;10.164;2022-09-01T02:08:32;95864.72;;;14.82;100.00
73674;BME280;61975;48.660;10.164;2022-09-01T02:10:59;95859.13;;;14.79;100.00
73674;BME280;61975;48.660;10.164;2022-09-01T02:13:25;95859.94;;;14.79;100.00
73674;BME280;61975;48.660;10.164;2022-09-01T02:15:57;95852.75;;;14.75;100.00
73674;BME280;61975;48.660;10.164;2022-09-01T02:18:26;95850.38;;;14.73;100.00
73674;BME280;61975;48.660;10.164;2022-09-01T02:20:53;95856.38;;;14.75;100.00
73674;BME280;61975;48.660;10.164;2022-09-01T02:23:20;95852.75;;;14.78;100.00
73674;BME280;61975;48.660;10.164;2022-09-01T02:25:51;95839.56;;;14.82;100.00
73674;BME280;61975;48.660;10.164;2022-09-01T02:28:18;95832.78;;;14.76;100.00
73674;BME280;61975;48.660;10.164;2022-09-01T02:30:47;95843.16;;;14.79;100.00
73674;BME280;61975;48.660;10.164;2022-09-01T02:33:18;95832.78;;;14.83;100.00
73674;BME280;61975;48.660;10.164;2022-09-01T02:35:53;95834.34;;;14.88;100.00
73674;BME280;61975;48.660;10.164;2022-09-01T02:38:19;95835.94;;;14.92;100.00
73674;BME280;61975;48.660;10.164;2022-09-01T02:40:46;95831.91;;;14.97;100.00
73674;BME280;61975;48.660;10.164;2022-09-01T02:43:14;95839.06;;;15.01;100.00
73674;BME280;61975;48.660;10.164;2022-09-01T02:45:45;95829.47;;;15.06;100.00
73674;BME280;61975;48.660;10.164;2022-09-01T02:48:11;95827.84;;;15.08;100.00
73674;BME280;61975;48.660;10.164;2022-09-01T02:50:39;95835.03;;;15.09;100.00
73674;BME280;61975;48.660;10.164;2022-09-01T02:53:06;95837.41;;;15.11;100.00
73674;BME280;61975;48.660;10.164;2022-09-01T02:55:35;95837.41;;;15.14;100.00
73674;BME280;61975;48.660;10.164;2022-09-01T02:58:01;95842.19;;;15.17;100.00
73674;BME280;61975;48.660;10.164;2022-09-01T03:00:27;95834.56;;;15.21;100.00
73674;BME280;61975;48.660;10.164;2022-09-01T03:02:59;95837.38;;;15.21;100.00
73674;BME280;61975;48.660;10.164;2022-09-01T03:05:27;95838.97;;;15.19;100.00
73674;BME280;61975;48.660;10.164;2022-09-01T03:08:01;95840.16;;;15.18;100.00
73674;BME280;61975;48.660;10.164;2022-09-01T03:10:33;95836.19;;;15.15;100.00
73674;BME280;61975;48.660;10.164;2022-09-01T03:13:05;95836.19;;;15.15;100.00
73674;BME280;61975;48.660;10.164;2022-09-01T03:15:33;95835.78;;;15.20;100.00
73674;BME280;61975;48.660;10.164;2022-09-01T03:18:01;95834.97;;;15.20;100.00
73674;BME280;61975;48.660;10.164;2022-09-01T03:20:28;95830.56;;;15.22;100.00
73674;BME280;61975;48.660;10.164;2022-09-01T03:22:54;95836.16;;;15.26;100.00
73674;BME280;61975;48.660;10.164;2022-09-01T03:25:23;95832.53;;;15.29;100.00
73674;BME280;61975;48.660;10.164;2022-09-01T03:27:50;95826.53;;;15.30;100.00
73674;BME280;61975;48.660;10.164;2022-09-01T03:30:17;95832.50;;;15.32;100.00
73674;BME280;61975;48.660;10.164;2022-09-01T03:32:43;95825.28;;;15.35;100.00
73674;BME280;61975;48.660;10.164;2022-09-01T03:35:10;95817.69;;;15.35;100.00
73674;BME280;61975;48.660;10.164;2022-09-01T03:37:36;95819.72;;;15.38;100.00
73674;BME280;61975;48.660;10.164;2022-09-01T03:40:05;95824.50;;;15.41;100.00
73674;BME280;61975;48.660;10.164;2022-09-01T03:42:31;95824.50;;;15.41;100.00
73674;BME280;61975;48.660;10.164;2022-09-01T03:44:56;95822.47;;;15.42;100.00
73674;BME280;61975;48.660;10.164;2022-09-01T03:47:23;95819.25;;;15.43;100.00
73674;BME280;61975;48.660;10.164;2022-09-01T03:49:49;95813.66;;;15.43;100.00
73674;BME280;61975;48.660;10.164;2022-09-01T03:52:16;95816.09;;;15.41;100.00
73674;BME280;61975;48.660;10.164;2022-09-01T03:54:43;95813.31;;;15.41;100.00
73674;BME280;61975;48.660;10.164;2022-09-01T03:57:10;95817.28;;;15.44;100.00
73674;BME280;61975;48.660;10.164;2022-09-01T03:59:36;95822.06;;;15.43;100.00
73674;BME280;61975;48.660;10.164;2022-09-01T04:02:07;95820.88;;;15.44;100.00
73674;BME280;61975;48.660;10.164;2022-09-01T04:04:33;95820.88;;;15.44;100.00
73674;BME280;61975;48.660;10.164;2022-09-01T04:06:58;95812.50;;;15.44;100.00
73674;BME280;61975;48.660;10.164;2022-09-01T04:09:26;95818.44;;;15.46;100.00
73674;BME280;61975;48.660;10.164;2022-09-01T04:11:53;95813.66;;;15.47;100.00
73674;BME280;61975;48.660;10.164;2022-09-01T04:14:18;95816.06;;;15.48;100.00
73674;BME280;61975;48.660;10.164;2022-09-01T04:16:44;95817.63;;;15.49;100.00
73674;BME280;61975;48.660;10.164;2022-09-01T04:19:33;95816.41;;;15.50;100.00
73674;BME280;61975;48.660;10.164;2022-09-01T04:22:01;95818.81;;;15.52;100.00
73674;BME280;61975;48.660;10.164;2022-09-01T04:24:30;95818.03;;;15.51;100.00
73674;BME280;61975;48.660;10.164;2022-09-01T04:26:58;95820.44;;;15.49;100.00
73674;BME280;61975;48.660;10.164;2022-09-01T04:29:26;95826.03;;;15.49;100.00
73674;BME280;61975;48.660;10.164;2022-09-01T04:31:53;95822.81;;;15.51;100.00
73674;BME280;61975;48.660;10.164;2022-09-01T04:34:20;95826.00;;;15.53;100.00
73674;BME280;61975;48.660;10.164;2022-09-01T04:36:47;95825.22;;;15.52;100.00
73674;BME280;61975;48.660;10.164;2022-09-01T04:39:12;95825.22;;;15.52;100.00
73674;BME280;61975;48.660;10.164;2022-09-01T04:41:43;95833.59;;;15.52;100.00
73674;BME280;61975;48.660;10.164;2022-09-01T04:44:11;95824.41;;;15.52;100.00
73674;BME280;61975;48.660;10.164;2022-09-01T04:46:39;95832.03;;;15.51;100.00
73674;BME280;61975;48.660;10.164;2022-09-01T04:49:10;95831.22;;;15.51;100.00
73674;BME280;61975;48.660;10.164;2022-09-01T04:51:41;95827.59;;;15.50;100.00
73674;BME280;61975;48.660;10.164;2022-09-01T04:54:09;95824.41;;;15.52;100.00
73674;BME280;61975;48.660;10.164;2022-09-01T04:56:37;95827.59;;;15.50;100.00
73674;BME280;61975;48.660;10.164;2022-09-01T04:59:03;95827.59;;;15.50;100.00
73674;BME280;61975;48.660;10.164;2022-09-01T05:01:32;95832.78;;;15.52;100.00
73674;BME280;61975;48.660;10.164;2022-09-01T05:04:15;95826.78;;;15.53;100.00
73674;BME280;61975;48.660;10.164;2022-09-01T05:06:44;95821.19;;;15.53;100.00
73674;BME280;61975;48.660;10.164;2022-09-01T05:09:11;95821.59;;;15.55;100.00
73674;BME280;61975;48.660;10.164;2022-09-01T05:11:38;95823.56;;;15.58;100.00
73674;BME280;61975;48.660;10.164;2022-09-01T05:14:05;95820.78;;;15.58;100.00
73674;BME280;61975;48.660;10.164;2022-09-01T05:16:32;95829.13;;;15.62;100.00
73674;BME280;61975;48.660;10.164;2022-09-01T05:18:58;95829.13;;;15.65;100.00
73674;BME280;61975;48.660;10.164;2022-09-01T05:21:26;95825.91;;;15.67;100.00
73674;BME280;61975;48.660;10.164;2022-09-01T05:23:54;95827.09;;;15.69;100.00
73674;BME280;61975;48.660;10.164;2022-09-01T05:26:29;95835.84;;;15.71;100.00
73674;BME280;61975;48.660;10.164;2022-09-01T05:28:58;95835.03;;;15.74;100.00
73674;BME280;61975;48.660;10.164;2022-09-01T05:31:25;95833.78;;;15.79;100.00
73674;BME280;61975;48.660;10.164;2022-09-01T05:33:53;95840.97;;;15.83;100.00
73674;BME280;61975;48.660;10.164;2022-09-01T05:36:20;95834.53;;;15.86;100.00
73674;BME280;61975;48.660;10.164;2022-09-01T05:38:48;95838.09;;;15.90;100.00
73674;BME280;61975;48.660;10.164;2022-09-01T05:41:18;95838.47;;;15.96;100.00
73674;BME280;61975;48.660;10.164;2022-09-01T05:43:46;95838.41;;;15.99;100.00
73674;BME280;61975;48.660;10.164;2022-09-01T05:46:16;95838.00;;;16.01;100.00
73674;BME280;61975;48.660;10.164;2022-09-01T05:48:44;95837.97;;;16.04;100.00
73674;BME280;61975;48.660;10.164;2022-09-01T05:51:11;95839.97;;;16.07;99.78
73674;BME280;61975;48.660;10.164;2022-09-01T05:53:40;95831.16;;;16.09;99.41
73674;BME280;61975;48.660;10.164;2022-09-01T05:56:08;95843.13;;;16.09;99.54
73674;BME280;61975;48.660;10.164;2022-09-01T05:58:38;95832.78;;;16.06;99.53
73674;BME280;61975;48.660;10.164;2022-09-01T06:01:05;95846.38;;;16.04;99.83
73674;BME280;61975;48.660;10.164;2022-09-01T06:03:31;95836.81;;;16.02;100.00
73674;BME280;61975;48.660;10.164;2022-09-01T06:06:06;95833.63;;;16.00;99.33
73674;BME280;61975;48.660;10.164;2022-09-01T06:08:34;95839.63;;;15.98;99.20
73674;BME280;61975;48.660;10.164;2022-09-01T06:11:01;95841.66;;;15.94;99.31
73674;BME280;61975;48.660;10.164;2022-09-01T06:13:28;95838.06;;;15.94;99.12
73674;BME280;61975;48.660;10.164;2022-09-01T06:15:53;95836.47;;;15.96;99.00
73674;BME280;61975;48.660;10.164;2022-09-01T06:18:23;95829.19;;;16.02;98.51
73674;BME280;61975;48.660;10.164;2022-09-01T06:20:48;95833.97;;;16.05;98.15
73674;BME280;61975;48.660;10.164;2022-09-01T06:23:15;95843.44;;;16.18;97.20
73674;BME280;61975;48.660;10.164;2022-09-01T06:25:45;95830.13;;;16.33;96.25
73674;BME280;61975;48.660;10.164;2022-09-01T06:28:17;95830.00;;;16.47;94.78
73674;BME280;61975;48.660;10.164;2022-09-01T06:30:48;95840.72;;;16.56;94.20
73674;BME280;61975;48.660;10.164;2022-09-01T06:33:16;95838.25;;;16.61;93.54
73674;BME280;61975;48.660;10.164;2022-09-01T06:35:43;95837.34;;;16.68;93.48
73674;BME280;61975;48.660;10.164;2022-09-01T06:38:12;95840.88;;;16.75;93.28
73674;BME280;61975;48.660;10.164;2022-09-01T06:40:43;95836.34;;;16.85;93.40
73674;BME280;61975;48.660;10.164;2022-09-01T06:43:11;95833.38;;;16.99;91.82
73674;BME280;61975;48.660;10.164;2022-09-01T06:45:44;95847.31;;;17.06;89.71
73674;BME280;61975;48.660;10.164;2022-09-01T06:48:14;95850.03;;;17.13;89.36
73674;BME280;61975;48.660;10.164;2022-09-01T06:50:40;95833.09;;;17.20;88.54
73674;BME280;61975;48.660;10.164;2022-09-01T06:53:06;95844.22;;;17.27;87.15
73674;BME280;61975;48.660;10.164;2022-09-01T06:55:39;95841.28;;;17.37;87.08
73674;BME280;61975;48.660;10.164;2022-09-01T06:58:07;95846.47;;;17.39;87.21
73674;BME280;61975;48.660;10.164;2022-09-01T07:00:35;95847.50;;;17.52;87.16
73674;BME280;61975;48.660;10.164;2022-09-01T07:03:07;95851.13;;;17.52;86.49
73674;BME280;61975;48.660;10.164;2022-09-01T07:05:37;95852.59;;;17.60;85.92
73674;BME280;61975;48.660;10.164;2022-09-01T07:08:03;95856.94;;;17.65;85.15
73674;BME280;61975;48.660;10.164;2022-09-01T07:10:32;95850.00;;;17.73;84.40
73674;BME280;61975;48.660;10.164;2022-09-01T07:12:58;95856.31;;;17.80;83.29
73674;BME280;61975;48.660;10.164;2022-09-01T07:15:26;95861.81;;;17.87;83.68
73674;BME280;61975;48.660;10.164;2022-09-01T07:17:54;95866.44;;;18.01;84.07
73674;BME280;61975;48.660;10.164;2022-09-01T07:20:22;95865.50;;;18.07;82.86
73674;BME280;61975;48.660;10.164;2022-09-01T07:22:49;95859.50;;;18.05;82.79
73674;BME280;61975;48.660;10.164;2022-09-01T07:25:16;95859.81;;;18.11;82.00
73674;BME280;61975;48.660;10.164;2022-09-01T07:27:43;95861.34;;;18.15;81.61
73674;BME280;61975;48.660;10.164;2022-09-01T07:30:16;95855.69;;;18.19;80.01
73674;BME280;61975;48.660;10.164;2022-09-01T07:32:43;95865.66;;;18.23;79.88
73674;BME280;61975;48.660;10.164;2022-09-01T07:35:13;95859.66;;;18.21;79.21
73674;BME280;61975;48.660;10.164;2022-09-01T07:37:38;95857.78;;;18.15;78.61
73674;BME280;61975;48.660;10.164;2022-09-01T07:40:09;95859.81;;;18.11;78.64
73674;BME280;61975;48.660;10.164;2022-09-01T07:42:36;95857.78;;;18.15;79.05
73674;BME280;61975;48.660;10.164;2022-09-01T07:45:09;95870.84;;;18.25;79.36
73674;BME280;61975;48.660;10.164;2022-09-01T07:47:35;95870.69;;;18.35;78.72
73674;BME280;61975;48.660;10.164;2022-09-01T07:50:06;95869.03;;;18.38;78.06
73674;BME280;61975;48.660;10.164;2022-09-01T07:52:37;95875.38;;;18.42;78.95
73674;BME280;61975;48.660;10.164;2022-09-01T07:55:11;95880.09;;;18.48;78.23
73674;BME280;61975;48.660;10.164;2022-09-01T07:57:39;95882.69;;;18.59;78.19
73674;BME280;61975;48.660;10.164;2022-09-01T08:00:07;95882.28;;;18.60;76.70
73674;BME280;61975;48.660;10.164;2022-09-01T08:02:33;95884.75;;;18.58;75.23
73674;BME280;61975;48.660;10.164;2022-09-01T08:04:58;95880.00;;;18.52;73.91
73674;BME280;61975;48.660;10.164;2022-09-01T08:07:24;95883.38;;;18.43;75.61
73674;BME280;61975;48.660;10.164;2022-09-01T08:09:50;95884.19;;;18.44;76.02
73674;BME280;61975;48.660;10.164;2022-09-01T08:12:15;95888.16;;;18.46;75.97
73674;BME280;61975;48.660;10.164;2022-09-01T08:14:41;95890.53;;;18.48;75.30
73674;BME280;61975;48.660;10.164;2022-09-01T08:17:07;95892.56;;;18.47;75.61
73674;BME280;61975;48.660;10.164;2022-09-01T08:19:32;95900.31;;;18.40;75.89
73674;BME280;61975;48.660;10.164;2022-09-01T08:21:57;95894.41;;;18.31;76.53
73674;BME280;61975;48.660;10.164;2022-09-01T08:24:23;95891.94;;;18.36;77.01
73674;BME280;61975;48.660;10.164;2022-09-01T08:29:19;95890.91;;;18.50;76.29
73674;BME280;61975;48.660;10.164;2022-09-01T08:31:45;95905.09;;;18.43;76.01
73674;BME280;61975;48.660;10.164;2022-09-01T08:34:11;95905.94;;;18.40;76.67
73674;BME280;61975;48.660;10.164;2022-09-01T08:36:37;95903.47;;;18.42;76.26
73674;BME280;61975;48.660;10.164;2022-09-01T08:39:02;95899.94;;;18.38;77.00
73674;BME280;61975;48.660;10.164;2022-09-01T08:41:54;95905.88;;;18.43;76.87
73674;BME280;61975;48.660;10.164;2022-09-01T08:47:01;95906.19;;;18.22;78.35
73674;BME280;61975;48.660;10.164;2022-09-01T08:49:28;95912.44;;;18.10;79.01
73674;BME280;61975;48.660;10.164;2022-09-01T08:52:05;95912.97;;;18.02;79.55
73674;BME280;61975;48.660;10.164;2022-09-01T08:54:47;95915.38;;;18.00;80.07
73674;BME280;61975;48.660;10.164;2022-09-01T08:57:20;95926.94;;;18.05;79.87
73674;BME280;61975;48.660;10.164;2022-09-01T08:59:47;95923.16;;;18.15;78.85
73674;BME280;61975;48.660;10.164;2022-09-01T09:10:05;95928.78;;;18.65;76.69
73674;BME280;61975;48.660;10.164;2022-09-01T09:12:44;95931.13;;;18.70;75.97
73674;BME280;61975;48.660;10.164;2022-09-01T09:18:09;95927.75;;;18.78;75.55
73674;BME280;61975;48.660;10.164;2022-09-01T09:20:38;95926.09;;;18.81;75.34
73674;BME280;61975;48.660;10.164;2022-09-01T09:23:15;95924.56;;;18.99;75.81
73674;BME280;61975;48.660;10.164;2022-09-01T09:25:44;95924.09;;;19.01;74.03
73674;BME280;61975;48.660;10.164;2022-09-01T09:28:09;95926.72;;;19.12;72.65
73674;BME280;61975;48.660;10.164;2022-09-01T09:30:35;95923.34;;;19.20;72.71
73674;BME280;61975;48.660;10.164;2022-09-01T09:33:05;95924.19;;;19.40;71.53
73674;BME280;61975;48.660;10.164;2022-09-01T09:35:41;95928.78;;;19.50;70.16
73674;BME280;61975;48.660;10.164;2022-09-01T09:43:28;95921.69;;;19.97;67.81
73674;BME280;61975;48.660;10.164;2022-09-01T09:48:45;95918.72;;;20.04;67.22
73674;BME280;61975;48.660;10.164;2022-09-01T09:51:18;95915.63;;;19.99;67.33
73674;BME280;61975;48.660;10.164;2022-09-01T09:53:44;95923.31;;;19.98;67.63
73674;BME280;61975;48.660;10.164;2022-09-01T09:56:22;95911.56;;;20.00;67.00
73674;BME280;61975;48.660;10.164;2022-09-01T09:58:51;95917.81;;;20.11;66.16
73674;BME280;61975;48.660;10.164;2022-09-01T10:03:58;95920.47;;;20.34;65.61
73674;BME280;61975;48.660;10.164;2022-09-01T10:06:34;95918.34;;;20.54;64.67
73674;BME280;61975;48.660;10.164;2022-09-01T10:09:05;95917.19;;;20.67;64.29
73674;BME280;61975;48.660;10.164;2022-09-01T10:11:43;95916.66;;;20.72;64.28
73674;BME280;61975;48.660;10.164;2022-09-01T10:14:37;95920.97;;;20.93;63.91
73674;BME280;61975;48.660;10.164;2022-09-01T10:17:20;95916.81;;;21.13;62.70
73674;BME280;61975;48.660;10.164;2022-09-01T10:20:05;95914.84;;;21.26;61.19
73674;BME280;61975;48.660;10.164;2022-09-01T10:22:34;95910.44;;;21.38;61.94
73674;BME280;61975;48.660;10.164;2022-09-01T10:25:00;95914.13;;;21.51;60.82
73674;BME280;61975;48.660;10.164;2022-09-01T10:27:34;95908.38;;;21.54;60.48
73674;BME280;61975;48.660;10.164;2022-09-01T10:30:15;95912.78;;;21.55;60.17
73674;BME280;61975;48.660;10.164;2022-09-01T10:35:16;95903.06;;;21.69;59.97
73674;BME280;61975;48.660;10.164;2022-09-01T10:37:45;95912.44;;;21.66;59.25
73674;BME280;61975;48.660;10.164;2022-09-01T10:40:16;95915.81;;;21.48;60.22
73674;BME280;61975;48.660;10.164;2022-09-01T10:42:45;95908.63;;;21.31;59.95
73674;BME280;61975;48.660;10.164;2022-09-01T10:47:47;95903.75;;;21.19;60.28
73674;BME280;61975;48.660;10.164;2022-09-01T10:50:29;95905.88;;;21.28;60.18
73674;BME280;61975;48.660;10.164;2022-09-01T10:53:04;95905.97;;;21.40;59.91
73674;BME280;61975;48.660;10.164;2022-09-01T10:55:36;95902.72;;;21.54;59.60
73674;BME280;61975;48.660;10.164;2022-09-01T10:58:29;95906.34;;;21.67;59.42
73674;BME280;61975;48.660;10.164;2022-09-01T11:00:58;95902.56;;;21.74;58.27
73674;BME280;61975;48.660;10.164;2022-09-01T11:13:46;95893.97;;;21.90;56.91
73674;BME280;61975;48.660;10.164;2022-09-01T11:16:35;95902.97;;;22.14;56.64
73674;BME280;61975;48.660;10.164;2022-09-01T11:21:46;95908.03;;;22.44;54.47
73674;BME280;61975;48.660;10.164;2022-09-01T11:27:02;95907.78;;;22.63;53.37
73674;BME280;61975;48.660;10.164;2022-09-01T11:29:49;95889.34;;;22.71;53.09
73674;BME280;61975;48.660;10.164;2022-09-01T11:32:17;95893.16;;;22.90;52.18
73674;BME280;61975;48.660;10.164;2022-09-01T11:34:44;95876.25;;;22.99;51.10
73674;BME280;61975;48.660;10.164;2022-09-01T11:37:15;95894.41;;;23.23;51.01
73674;BME280;61975;48.660;10.164;2022-09-01T11:39:47;95893.38;;;23.51;50.01
73674;BME280;61975;48.660;10.164;2022-09-01T11:45:04;95891.38;;;23.82;49.49
73674;BME280;61975;48.660;10.164;2022-09-01T11:47:39;95880.84;;;23.82;49.81
73674;BME280;61975;48.660;10.164;2022-09-01T11:52:40;95879.47;;;23.87;50.43
73674;BME280;61975;48.660;10.164;2022-09-01T11:55:06;95877.22;;;23.82;50.61
73674;BME280;61975;48.660;10.164;2022-09-01T11:57:34;95880.66;;;23.77;50.04
73674;BME280;61975;48.660;10.164;2022-09-01T12:00:05;95875.91;;;23.74;50.24
73674;BME280;61975;48.660;10.164;2022-09-01T12:02:34;95875.97;;;23.83;50.05
73674;BME280;61975;48.660;10.164;2022-09-01T12:05:02;95877.75;;;23.68;50.29
73674;BME280;61975;48.660;10.164;2022-09-01T12:07:43;95879.19;;;23.72;50.39
73674;BME280;61975;48.660;10.164;2022-09-01T12:12:47;95868.25;;;23.83;49.64
73674;BME280;61975;48.660;10.164;2022-09-01T12:17:44;95865.22;;;23.78;49.93
73674;BME280;61975;48.660;10.164;2022-09-01T12:20:28;95868.38;;;23.80;49.44
73674;BME280;61975;48.660;10.164;2022-09-01T12:22:56;95868.25;;;23.83;49.23
73674;BME280;61975;48.660;10.164;2022-09-01T12:25:27;95863.34;;;24.06;48.51
73674;BME280;61975;48.660;10.164;2022-09-01T12:27:54;95862.59;;;24.14;47.90
73674;BME280;61975;48.660;10.164;2022-09-01T12:30:20;95859.63;;;24.18;47.87
73674;BME280;61975;48.660;10.164;2022-09-01T12:32:46;95861.13;;;24.40;47.56
73674;BME280;61975;48.660;10.164;2022-09-01T12:35:21;95858.97;;;24.53;47.02
73674;BME280;61975;48.660;10.164;2022-09-01T12:37:47;95856.91;;;24.54;47.55
73674;BME280;61975;48.660;10.164;2022-09-01T12:40:31;95860.34;;;24.49;47.03
73674;BME280;61975;48.660;10.164;2022-09-01T12:42:57;95866.84;;;24.58;47.48
73674;BME280;61975;48.660;10.164;2022-09-01T12:45:45;95864.06;;;24.67;46.86
73674;BME280;61975;48.660;10.164;2022-09-01T12:51:22;95857.63;;;24.76;47.00
73674;BME280;61975;48.660;10.164;2022-09-01T12:53:59;95857.78;;;24.90;47.33
73674;BME280;61975;48.660;10.164;2022-09-01T12:56:37;95855.00;;;25.08;46.38
73674;BME280;61975;48.660;10.164;2022-09-01T12:59:12;95855.13;;;25.23;46.74
73674;BME280;61975;48.660;10.164;2022-09-01T13:01:40;95861.47;;;25.27;46.33
73674;BME280;61975;48.660;10.164;2022-09-01T13:06:36;95858.44;;;25.21;46.31
73674;BME280;61975;48.660;10.164;2022-09-01T13:09:02;95855.75;;;24.91;46.60
73674;BME280;61975;48.660;10.164;2022-09-01T13:11:27;95866.56;;;24.65;46.51
73674;BME280;61975;48.660;10.164;2022-09-01T13:13:52;95858.50;;;24.55;46.97
73674;BME280;61975;48.660;10.164;2022-09-01T13:16:18;95864.00;;;24.58;47.52
73674;BME280;61975;48.660;10.164;2022-09-01T13:18:43;95857.06;;;24.50;46.93
73674;BME280;61975;48.660;10.164;2022-09-01T13:21:11;95851.69;;;24.52;47.55
73674;BME280;61975;48.660;10.164;2022-09-01T13:23:36;95853.13;;;24.57;47.69
73674;BME280;61975;48.660;10.164;2022-09-01T13:26:02;95847.63;;;24.62;48.00
73674;BME280;61975;48.660;10.164;2022-09-01T13:28:28;95855.84;;;24.69;47.66
73674;BME280;61975;48.660;10.164;2022-09-01T13:30:57;95852.41;;;24.74;47.89
73674;BME280;61975;48.660;10.164;2022-09-01T13:33:24;95858.09;;;24.74;48.11
73674;BME280;61975;48.660;10.164;2022-09-01T13:35:51;95846.75;;;24.74;47.05
73674;BME280;61975;48.660;10.164;2022-09-01T13:38:17;95846.84;;;24.62;47.00
73674;BME280;61975;48.660;10.164;2022-09-01T13:40:44;95842.56;;;24.57;47.15
73674;BME280;61975;48.660;10.164;2022-09-01T13:43:11;95849.69;;;24.62;47.09
73674;BME280;61975;48.660;10.164;2022-09-01T13:45:37;95842.16;;;24.77;46.27
73674;BME280;61975;48.660;10.164;2022-09-01T13:48:06;95840.75;;;24.90;45.13
73674;BME280;61975;48.660;10.164;2022-09-01T13:50:32;95846.75;;;24.92;45.91
73674;BME280;61975;48.660;10.164;2022-09-01T13:52:57;95842.69;;;25.11;45.65
73674;BME280;61975;48.660;10.164;2022-09-01T13:55:28;95840.91;;;25.23;44.52
73674;BME280;61975;48.660;10.164;2022-09-01T13:57:54;95847.88;;;25.40;43.25
73674;BME280;61975;48.660;10.164;2022-09-01T14:00:30;95838.88;;;25.50;41.71
73674;BME280;61975;48.660;10.164;2022-09-01T14:03:00;95818.94;;;25.68;41.02